Time;durP1;ratioP1;P1;durP2;ratioP2;P2;SDS_P1;SDS_P2;PMS_P1;PMS_P2;Temp;Humidity;BMP_temperature;BMP_pressure;BME280_temperature;BME280_humidity;BME280_pressure;Samples;Min_cycle;Max_cycle;Signal;HPM_P1;HPM_P2
2023/10/02 00:02:05;;;;;;;18.95;16.98;;;;;;;;;;4337447;32;318627;-82
2023/10/02 00:04:35;;;;;;;24.52;16.75;;;;;;;;;;4328410;32;319111;-82
2023/10/02 00:07:07;;;;;;;18.37;14.87;;;;;;;;;;4338648;32;318820;-83
2023/10/02 00:09:35;;;;;;;19.45;15.32;;;;;;;;;;4325355;32;318930;-84
2023/10/02 00:12:11;;;;;;;19.95;14.98;;;;;;;;;;4338787;32;319280;-83
2023/10/02 00:14:39;;;;;;;19.37;14.90;;;;;;;;;;4324885;32;418161;-84
2023/10/02 00:17:07;;;;;;;22.45;15.70;;;;;;;;;;4337542;32;319128;-85
2023/10/02 00:19:36;;;;;;;17.73;15.75;;;;;;;;;;4324831;32;319119;-83
2023/10/02 00:22:08;;;;;;;18.17;15.38;;;;;;;;;;4338663;32;318864;-83
2023/10/02 00:24:37;;;;;;;18.10;15.23;;;;;;;;;;4324753;32;420928;-82
2023/10/02 00:27:05;;;;;;;19.52;14.60;;;;;;;;;;4336896;32;319034;-83
2023/10/02 00:29:33;;;;;;;17.25;14.60;;;;;;;;;;4326004;32;318823;-84
2023/10/02 00:32:10;;;;;;;17.10;15.27;;;;;;;;;;4338286;32;337813;-83
2023/10/02 00:34:39;;;;;;;18.08;14.73;;;;;;;;;;4324489;32;418079;-84
2023/10/02 00:37:12;;;;;;;24.15;14.65;;;;;;;;;;4336436;32;360466;-82
2023/10/02 00:39:41;;;;;;;16.55;14.80;;;;;;;;;;4320437;32;418137;-87
2023/10/02 00:42:24;;;;;;;16.98;14.80;;;;;;;;;;4337716;32;318817;-84
2023/10/02 00:44:53;;;;;;;20.95;15.50;;;;;;;;;;4323077;32;417966;-83
2023/10/02 00:47:45;;;;;;;21.42;14.90;;;;;;;;;;4326816;32;318828;-83
2023/10/02 00:50:17;;;;;;;16.70;14.80;;;;;;;;;;4323144;32;319022;-83
2023/10/02 00:52:52;;;;;;;21.80;13.60;;;;;;;;;;4338092;32;318979;-85
2023/10/02 00:55:21;;;;;;;18.00;14.43;;;;;;;;;;4327483;32;319151;-82
2023/10/02 00:57:51;;;;;;;17.98;14.43;;;;;;;;;;4335292;32;319035;-83
2023/10/02 01:00:21;;;;;;;15.70;14.05;;;;;;;;;;4327339;32;319171;-84
2023/10/02 01:02:50;;;;;;;17.33;15.23;;;;;;;;;;4339677;32;318805;-84
2023/10/02 01:05:21;;;;;;;16.98;14.77;;;;;;;;;;4331486;32;319021;-84
2023/10/02 01:07:54;;;;;;;20.17;15.48;;;;;;;;;;4339939;32;318465;-83
2023/10/02 01:10:23;;;;;;;18.12;14.45;;;;;;;;;;4330215;32;319105;-83
2023/10/02 01:12:53;;;;;;;16.65;14.93;;;;;;;;;;4341963;32;318747;-82
2023/10/02 01:15:26;;;;;;;16.27;13.95;;;;;;;;;;4330953;32;335039;-83
2023/10/02 01:17:57;;;;;;;19.30;15.02;;;;;;;;;;4339666;32;318753;-83
2023/10/02 01:20:35;;;;;;;15.88;14.27;;;;;;;;;;4331265;32;319181;-84
2023/10/02 01:23:16;;;;;;;17.52;15.45;;;;;;;;;;4341636;32;319015;-84
2023/10/02 01:25:49;;;;;;;19.70;15.73;;;;;;;;;;4323545;32;418141;-84
2023/10/02 01:28:20;;;;;;;15.25;13.60;;;;;;;;;;4330781;32;319079;-86
2023/10/02 01:30:50;;;;;;;16.77;14.68;;;;;;;;;;4340016;32;318484;-83
2023/10/02 01:33:22;;;;;;;17.10;15.13;;;;;;;;;;4330269;32;318875;-84
2023/10/02 01:35:51;;;;;;;20.05;14.00;;;;;;;;;;4337223;32;318877;-83
2023/10/02 01:38:29;;;;;;;17.25;15.55;;;;;;;;;;4330872;32;318739;-84
2023/10/02 01:41:06;;;;;;;22.73;15.80;;;;;;;;;;4340508;32;318978;-85
2023/10/02 01:43:39;;;;;;;21.98;14.23;;;;;;;;;;4325947;32;319118;-85
2023/10/02 01:46:06;;;;;;;15.63;12.75;;;;;;;;;;4340351;32;318919;-85
2023/10/02 01:48:40;;;;;;;18.02;13.00;;;;;;;;;;4329135;32;319158;-83
2023/10/02 01:51:25;;;;;;;14.15;12.68;;;;;;;;;;4339289;32;318930;-83
2023/10/02 01:53:55;;;;;;;15.70;12.88;;;;;;;;;;4321441;32;419239;-83
2023/10/02 01:56:25;;;;;;;14.68;13.10;;;;;;;;;;4330580;32;318954;-88
2023/10/02 01:58:54;;;;;;;13.80;12.27;;;;;;;;;;4340822;32;318975;-86
2023/10/02 02:01:22;;;;;;;16.62;12.02;;;;;;;;;;4328959;32;318812;-82
2023/10/02 02:03:55;;;;;;;15.88;12.48;;;;;;;;;;4337175;32;318898;-82
2023/10/02 02:06:25;;;;;;;22.90;13.32;;;;;;;;;;4327403;32;318767;-83
2023/10/02 02:08:59;;;;;;;17.85;13.30;;;;;;;;;;4340443;32;318759;-83
2023/10/02 02:11:34;;;;;;;17.08;12.82;;;;;;;;;;4328390;32;318831;-84
2023/10/02 02:14:04;;;;;;;14.18;11.80;;;;;;;;;;4338484;32;318897;-84
2023/10/02 02:16:34;;;;;;;16.87;12.50;;;;;;;;;;4329932;32;318911;-82
2023/10/02 02:19:05;;;;;;;16.73;12.93;;;;;;;;;;4340497;32;317602;-82
2023/10/02 02:21:33;;;;;;;17.25;13.70;;;;;;;;;;4324675;32;318902;-83
2023/10/02 02:24:08;;;;;;;18.27;13.32;;;;;;;;;;4336721;32;318760;-82
2023/10/02 02:26:39;;;;;;;16.77;13.02;;;;;;;;;;4329565;32;327010;-83
2023/10/02 02:29:19;;;;;;;15.27;12.73;;;;;;;;;;4339088;32;318954;-82
2023/10/02 02:31:49;;;;;;;17.02;12.98;;;;;;;;;;4325206;32;419977;-83
2023/10/02 02:34:16;;;;;;;19.08;13.23;;;;;;;;;;4329293;32;318926;-83
2023/10/02 02:36:46;;;;;;;18.40;13.77;;;;;;;;;;4338190;32;319024;-82
2023/10/02 02:39:17;;;;;;;20.20;12.65;;;;;;;;;;4328298;32;318752;-82
2023/10/02 02:41:48;;;;;;;16.33;13.65;;;;;;;;;;4336962;32;318903;-82
2023/10/02 02:47:07;;;;;;;15.93;12.63;;;;;;;;;;4337913;32;318889;-84
2023/10/02 02:49:48;;;;;;;15.60;13.40;;;;;;;;;;4325592;32;318923;-82
2023/10/02 02:52:17;;;;;;;18.20;13.62;;;;;;;;;;4324687;32;318940;-82
2023/10/02 02:54:48;;;;;;;14.23;12.73;;;;;;;;;;4337701;32;318991;-82
2023/10/02 02:57:24;;;;;;;15.65;14.05;;;;;;;;;;4328885;32;318602;-83
2023/10/02 03:00:24;;;;;;;13.88;12.43;;;;;;;;;;4336004;32;319022;-84
2023/10/02 03:02:45;;;;;;;23.30;13.32;;;;;;;;;;4324716;32;390737;-82
2023/10/02 03:05:13;;;;;;;16.42;12.95;;;;;;;;;;4327947;32;319104;-85
2023/10/02 03:07:42;;;;;;;15.18;12.60;;;;;;;;;;4335952;32;319291;-84
2023/10/02 03:10:12;;;;;;;17.50;13.35;;;;;;;;;;4339623;32;318797;-83
2023/10/02 03:12:44;;;;;;;15.75;12.90;;;;;;;;;;4326249;32;417952;-84
2023/10/02 03:15:17;;;;;;;16.42;12.95;;;;;;;;;;4329506;32;318925;-84
2023/10/02 03:17:45;;;;;;;19.87;12.63;;;;;;;;;;4334697;32;318838;-87
2023/10/02 03:20:23;;;;;;;17.65;11.90;;;;;;;;;;4324316;32;319210;-86
2023/10/02 03:22:53;;;;;;;13.23;10.27;;;;;;;;;;4338163;32;318919;-84
2023/10/02 03:25:40;;;;;;;18.48;11.52;;;;;;;;;;4327066;32;319183;-84
2023/10/02 03:28:16;;;;;;;16.02;11.43;;;;;;;;;;4338562;32;319056;-84
2023/10/02 03:30:46;;;;;;;16.67;11.00;;;;;;;;;;4324272;32;418734;-84
2023/10/02 03:33:20;;;;;;;14.07;11.05;;;;;;;;;;4328401;32;319526;-83
2023/10/02 03:36:07;;;;;;;15.98;9.55;;;;;;;;;;4336107;32;319391;-83
2023/10/02 03:38:36;;;;;;;17.33;10.55;;;;;;;;;;4329235;32;318035;-83
2023/10/02 03:41:05;;;;;;;13.05;9.85;;;;;;;;;;4344869;32;317572;-84
2023/10/02 03:43:43;;;;;;;15.43;9.85;;;;;;;;;;4324901;32;318065;-84
2023/10/02 03:46:16;;;;;;;15.65;11.02;;;;;;;;;;4336823;32;318220;-85
2023/10/02 03:48:51;;;;;;;12.57;11.25;;;;;;;;;;4339139;32;318733;-84
2023/10/02 03:51:35;;;;;;;13.07;10.50;;;;;;;;;;4327135;32;319017;-83
2023/10/02 03:54:17;;;;;;;12.63;10.48;;;;;;;;;;4336209;32;319228;-84
2023/10/02 03:56:47;;;;;;;20.15;10.23;;;;;;;;;;4324726;32;390140;-84
2023/10/02 03:59:20;;;;;;;15.63;11.68;;;;;;;;;;4326696;32;319076;-84
2023/10/02 04:01:50;;;;;;;16.02;11.10;;;;;;;;;;4315055;32;318785;-83
2023/10/02 04:04:21;;;;;;;16.00;11.73;;;;;;;;;;4325743;32;318985;-84
2023/10/02 04:06:53;;;;;;;16.17;11.27;;;;;;;;;;4336379;32;319180;-83
2023/10/02 04:09:23;;;;;;;18.23;12.95;;;;;;;;;;4327651;32;319072;-84
2023/10/02 04:11:52;;;;;;;17.58;12.73;;;;;;;;;;4334200;32;318832;-83
2023/10/02 04:14:31;;;;;;;26.98;12.48;;;;;;;;;;4328529;32;319043;-83
2023/10/02 04:17:13;;;;;;;22.25;12.25;;;;;;;;;;4337430;32;318662;-83
2023/10/02 04:19:43;;;;;;;22.92;13.93;;;;;;;;;;4316569;32;422075;-84
2023/10/02 04:22:19;;;;;;;23.10;14.57;;;;;;;;;;4334460;32;318869;-84
2023/10/02 04:24:54;;;;;;;18.58;13.05;;;;;;;;;;4338039;32;319122;-83
2023/10/02 04:28:00;;;;;;;18.80;13.13;;;;;;;;;;4327588;32;319144;-84
2023/10/02 04:30:22;;;;;;;19.00;14.02;;;;;;;;;;4328349;32;318956;-84
2023/10/02 04:32:51;;;;;;;39.15;15.93;;;;;;;;;;4338760;32;318963;-83
2023/10/02 04:38:08;;;;;;;28.73;15.52;;;;;;;;;;4339728;32;318841;-83
2023/10/02 04:40:44;;;;;;;29.95;17.90;;;;;;;;;;4330626;32;329385;-83
2023/10/02 04:43:23;;;;;;;32.17;16.05;;;;;;;;;;4330622;32;318947;-84
2023/10/02 04:46:01;;;;;;;27.98;18.42;;;;;;;;;;4339118;32;318878;-82
2023/10/02 04:48:38;;;;;;;34.03;18.33;;;;;;;;;;4329117;32;318971;-83
2023/10/02 04:51:08;;;;;;;40.28;19.90;;;;;;;;;;4340156;32;319033;-82
2023/10/02 04:53:36;;;;;;;35.58;18.67;;;;;;;;;;4327468;32;318931;-84
2023/10/02 04:56:21;;;;;;;34.78;18.67;;;;;;;;;;4339254;32;319028;-83
2023/10/02 04:58:51;;;;;;;31.25;17.62;;;;;;;;;;4327290;32;419538;-85
2023/10/02 05:01:34;;;;;;;33.90;17.35;;;;;;;;;;4329723;32;318799;-84
2023/10/02 05:04:03;;;;;;;32.67;18.30;;;;;;;;;;4340106;32;318114;-83
2023/10/02 05:06:52;;;;;;;32.28;17.23;;;;;;;;;;4328231;32;318971;-83
2023/10/02 05:09:21;;;;;;;25.35;17.33;;;;;;;;;;4328608;32;318842;-86
2023/10/02 05:11:52;;;;;;;25.45;16.40;;;;;;;;;;4335956;32;319098;-86
2023/10/02 05:14:26;;;;;;;31.98;16.58;;;;;;;;;;4327149;32;318909;-83
2023/10/02 05:17:16;;;;;;;20.42;13.65;;;;;;;;;;4339895;32;318883;-85
2023/10/02 05:20:02;;;;;;;23.92;11.82;;;;;;;;;;4325538;32;391845;-85
2023/10/02 05:22:30;;;;;;;44.75;16.23;;;;;;;;;;4324277;32;318833;-78
2023/10/02 05:24:59;;;;;;;18.70;12.27;;;;;;;;;;4337791;32;319050;-78
2023/10/02 05:27:35;;;;;;;17.33;13.23;;;;;;;;;;4327603;32;319259;-78
2023/10/02 05:30:05;;;;;;;18.05;12.55;;;;;;;;;;4338690;32;319048;-81
2023/10/02 05:32:35;;;;;;;23.42;13.65;;;;;;;;;;4329138;32;319070;-77
2023/10/02 05:35:12;;;;;;;19.55;13.70;;;;;;;;;;4339699;32;318957;-78
2023/10/02 05:37:45;;;;;;;18.00;12.77;;;;;;;;;;4323182;32;418066;-78
2023/10/02 05:43:18;;;;;;;24.00;14.43;;;;;;;;;;4322501;32;319091;-80
2023/10/02 05:45:50;;;;;;;27.45;15.02;;;;;;;;;;4316137;32;420959;-78
2023/10/02 05:48:27;;;;;;;23.42;13.73;;;;;;;;;;4329124;32;318841;-83
2023/10/02 05:50:56;;;;;;;27.98;15.07;;;;;;;;;;4338748;32;319070;-84
2023/10/02 05:53:26;;;;;;;30.40;15.85;;;;;;;;;;4326153;32;319125;-87
2023/10/02 05:56:12;;;;;;;33.97;17.80;;;;;;;;;;4339376;32;318879;-85
2023/10/02 05:58:41;;;;;;;29.33;16.35;;;;;;;;;;4326980;32;419604;-85
2023/10/02 06:01:18;;;;;;;30.23;16.25;;;;;;;;;;4338308;32;318954;-83
2023/10/02 06:03:56;;;;;;;30.05;14.27;;;;;;;;;;4322197;32;388864;-85
2023/10/02 06:06:24;;;;;;;30.10;16.58;;;;;;;;;;4326438;32;319026;-86
2023/10/02 06:08:54;;;;;;;23.02;16.92;;;;;;;;;;4338239;32;318903;-87
2023/10/02 06:11:28;;;;;;;34.92;16.70;;;;;;;;;;4326820;32;319424;-87
2023/10/02 06:14:09;;;;;;;36.20;17.48;;;;;;;;;;4338634;32;318807;-83
2023/10/02 06:16:37;;;;;;;26.98;16.55;;;;;;;;;;4326328;32;418672;-84
2023/10/02 06:19:06;;;;;;;26.42;15.00;;;;;;;;;;4337787;32;319289;-83
2023/10/02 06:21:45;;;;;;;25.77;14.05;;;;;;;;;;4324892;32;319326;-84
2023/10/02 06:24:14;;;;;;;22.85;14.20;;;;;;;;;;4323975;32;319191;-83
2023/10/02 06:26:55;;;;;;;26.00;12.80;;;;;;;;;;4337303;32;319168;-84
2023/10/02 06:29:23;;;;;;;34.85;15.98;;;;;;;;;;4327190;32;319135;-85
2023/10/02 06:31:58;;;;;;;30.92;14.13;;;;;;;;;;4334878;32;318779;-82
2023/10/02 06:34:36;;;;;;;25.33;14.40;;;;;;;;;;4327216;32;318858;-83
2023/10/02 06:37:08;;;;;;;26.87;14.35;;;;;;;;;;4337512;32;319060;-84
2023/10/02 06:39:40;;;;;;;21.35;13.32;;;;;;;;;;4323405;32;329184;-85
2023/10/02 06:42:08;;;;;;;20.42;11.80;;;;;;;;;;4337807;32;319201;-82
2023/10/02 06:44:41;;;;;;;19.42;12.68;;;;;;;;;;4323450;32;419583;-83
2023/10/02 06:47:13;;;;;;;25.25;11.95;;;;;;;;;;4338582;32;319018;-83
2023/10/02 06:49:44;;;;;;;25.17;10.85;;;;;;;;;;4319902;32;418956;-83
2023/10/02 06:52:16;;;;;;;24.87;12.20;;;;;;;;;;4328973;32;318755;-86
2023/10/02 06:54:45;;;;;;;26.48;12.15;;;;;;;;;;4338849;32;319080;-83
2023/10/02 06:57:13;;;;;;;22.52;12.00;;;;;;;;;;4327473;32;318830;-85
2023/10/02 06:59:51;;;;;;;25.37;11.32;;;;;;;;;;4336661;32;319170;-83
2023/10/02 07:02:18;;;;;;;23.65;11.75;;;;;;;;;;4327306;32;319167;-83
2023/10/02 07:04:48;;;;;;;19.25;11.40;;;;;;;;;;4334095;32;318759;-83
2023/10/02 07:07:24;;;;;;;28.98;10.70;;;;;;;;;;4323679;32;319235;-86
2023/10/02 07:09:54;;;;;;;16.58;10.05;;;;;;;;;;4337295;32;319037;-84
2023/10/02 07:12:27;;;;;;;17.60;9.07;;;;;;;;;;4326145;32;318953;-86
2023/10/02 07:15:10;;;;;;;13.98;9.90;;;;;;;;;;4338199;32;317678;-83
2023/10/02 07:17:47;;;;;;;19.87;10.82;;;;;;;;;;4322534;32;417103;-84
2023/10/02 07:20:18;;;;;;;17.33;9.90;;;;;;;;;;4326005;32;318914;-85
2023/10/02 07:22:45;;;;;;;19.02;10.80;;;;;;;;;;4338360;32;318033;-84
2023/10/02 07:25:20;;;;;;;19.58;11.32;;;;;;;;;;4325256;32;400635;-84
2023/10/02 07:27:48;;;;;;;21.00;11.10;;;;;;;;;;4336189;32;319079;-84
2023/10/02 07:30:25;;;;;;;21.27;10.23;;;;;;;;;;4327268;32;318948;-84
2023/10/02 07:32:52;;;;;;;21.67;11.23;;;;;;;;;;4337851;32;318804;-82
2023/10/02 07:35:24;;;;;;;19.00;11.18;;;;;;;;;;4326401;32;319258;-83
2023/10/02 07:37:59;;;;;;;18.17;10.05;;;;;;;;;;4337144;32;319167;-84
2023/10/02 07:40:46;;;;;;;19.42;10.27;;;;;;;;;;4328329;32;318934;-83
2023/10/02 07:43:14;;;;;;;17.12;9.35;;;;;;;;;;4326280;32;318981;-83
2023/10/02 07:45:41;;;;;;;23.50;9.65;;;;;;;;;;4335768;32;318126;-81
2023/10/02 07:48:13;;;;;;;16.90;8.68;;;;;;;;;;4338010;32;317854;-81
2023/10/02 07:50:44;;;;;;;14.85;8.40;;;;;;;;;;4324772;32;417024;-82
2023/10/02 07:53:12;;;;;;;20.90;11.20;;;;;;;;;;4325412;32;318471;-84
2023/10/02 07:55:42;;;;;;;17.17;9.27;;;;;;;;;;4334311;32;319648;-84
2023/10/02 07:58:13;;;;;;;14.93;8.60;;;;;;;;;;4334644;32;317853;-82
2023/10/02 08:00:42;;;;;;;17.65;8.38;;;;;;;;;;4323753;32;417759;-82
2023/10/02 08:05:57;;;;;;;13.85;8.40;;;;;;;;;;4323199;32;387896;-82
2023/10/02 08:08:34;;;;;;;13.40;7.72;;;;;;;;;;4328404;32;318184;-82
2023/10/02 08:11:02;;;;;;;13.27;7.45;;;;;;;;;;4336969;32;317830;-83
2023/10/02 08:13:37;;;;;;;14.82;6.93;;;;;;;;;;4315918;32;318291;-84
2023/10/02 08:16:11;;;;;;;11.85;6.40;;;;;;;;;;4338264;32;318253;-83
2023/10/02 08:18:56;;;;;;;11.93;6.68;;;;;;;;;;4324941;32;417137;-83
2023/10/02 08:21:35;;;;;;;11.80;5.43;;;;;;;;;;4325345;32;317934;-83
2023/10/02 08:24:10;;;;;;;13.38;5.62;;;;;;;;;;4335821;32;325906;-82
2023/10/02 08:26:43;;;;;;;16.87;6.75;;;;;;;;;;4323397;32;420057;-81
2023/10/02 08:29:13;;;;;;;9.98;5.93;;;;;;;;;;4329389;32;317729;-83
2023/10/02 08:31:44;;;;;;;12.10;6.03;;;;;;;;;;4333463;32;329252;-82
2023/10/02 08:34:12;;;;;;;10.00;5.53;;;;;;;;;;4328184;32;317982;-83
2023/10/02 08:36:42;;;;;;;12.45;6.95;;;;;;;;;;4337349;32;317995;-82
2023/10/02 08:39:10;;;;;;;13.38;5.85;;;;;;;;;;4337467;32;318106;-82
2023/10/02 08:41:44;;;;;;;14.20;5.82;;;;;;;;;;4320947;32;416632;-82
2023/10/02 08:44:15;;;;;;;8.07;4.93;;;;;;;;;;4325516;32;328170;-83
2023/10/02 08:46:44;;;;;;;13.90;4.68;;;;;;;;;;4337696;32;316876;-82
2023/10/02 08:49:13;;;;;;;7.57;4.05;;;;;;;;;;4327431;32;317933;-85
2023/10/02 08:51:48;;;;;;;9.00;4.10;;;;;;;;;;4332673;32;316808;-83
2023/10/02 08:54:17;;;;;;;12.57;4.68;;;;;;;;;;4327057;32;316853;-83
2023/10/02 08:56:48;;;;;;;9.55;4.20;;;;;;;;;;4335924;32;321322;-84
2023/10/02 08:59:26;;;;;;;11.85;4.43;;;;;;;;;;4326551;32;317201;-82
2023/10/02 09:02:06;;;;;;;7.03;3.40;;;;;;;;;;4336251;32;317540;-83
2023/10/02 09:04:34;;;;;;;9.30;4.22;;;;;;;;;;4327326;32;317161;-83
2023/10/02 09:07:15;;;;;;;8.07;4.30;;;;;;;;;;4336650;32;317005;-83
2023/10/02 09:09:55;;;;;;;9.88;4.57;;;;;;;;;;4321450;32;419204;-82
2023/10/02 09:12:24;;;;;;;9.52;3.80;;;;;;;;;;4326052;32;316931;-83
2023/10/02 09:14:54;;;;;;;6.85;3.67;;;;;;;;;;4338400;32;316527;-83
2023/10/02 09:17:22;;;;;;;8.67;4.00;;;;;;;;;;4321828;32;316770;-85
2023/10/02 09:20:00;;;;;;;9.02;4.12;;;;;;;;;;4331214;32;316580;-83
2023/10/02 09:22:29;;;;;;;11.35;4.25;;;;;;;;;;4325247;32;317109;-83
2023/10/02 09:25:09;;;;;;;7.40;3.85;;;;;;;;;;4338295;32;317755;-82
2023/10/02 09:27:41;;;;;;;10.07;4.28;;;;;;;;;;4326728;32;386692;-84
2023/10/02 09:30:18;;;;;;;9.75;3.72;;;;;;;;;;4339384;32;318172;-82
2023/10/02 09:32:49;;;;;;;7.85;3.65;;;;;;;;;;4326532;32;416230;-82
2023/10/02 09:35:29;;;;;;;13.82;5.37;;;;;;;;;;4329574;32;317092;-83
2023/10/02 09:38:04;;;;;;;15.45;4.97;;;;;;;;;;4338733;32;317700;-83
2023/10/02 09:43:25;;;;;;;14.13;4.40;;;;;;;;;;4325506;32;316975;-83
2023/10/02 09:45:55;;;;;;;11.85;4.37;;;;;;;;;;4338093;32;317708;-82
2023/10/02 09:48:53;;;;;;;9.03;3.90;;;;;;;;;;4328311;32;318059;-83
2023/10/02 09:51:45;;;;;;;12.23;4.67;;;;;;;;;;4328224;32;316810;-82
2023/10/02 09:54:28;;;;;;;10.02;4.30;;;;;;;;;;4329531;32;318040;-82
2023/10/02 09:57:11;;;;;;;11.48;4.28;;;;;;;;;;4337607;32;317715;-82
2023/10/02 09:59:45;;;;;;;8.15;4.07;;;;;;;;;;4322272;32;417460;-81
2023/10/02 10:10:52;;;;;;;13.30;4.65;;;;;;;;;;4323261;32;388893;-82
2023/10/02 10:13:31;;;;;;;12.80;5.12;;;;;;;;;;4328907;32;317832;-85
2023/10/02 10:16:40;;;;;;;30.55;5.12;;;;;;;;;;4337241;32;336675;-81
2023/10/02 10:19:31;;;;;;;13.35;4.90;;;;;;;;;;4321222;32;417957;-83
2023/10/02 10:22:00;;;;;;;8.90;4.15;;;;;;;;;;4310888;33;417917;-82
2023/10/02 10:24:51;;;;;;;11.47;4.33;;;;;;;;;;4311985;33;339501;-83
2023/10/02 10:27:58;;;;;;;11.23;4.87;;;;;;;;;;4310788;32;317661;-83
2023/10/02 10:30:39;;;;;;;7.68;4.50;;;;;;;;;;4312814;33;318095;-82
2023/10/02 10:33:36;;;;;;;10.70;4.22;;;;;;;;;;4324291;32;316550;-81
2023/10/02 10:36:09;;;;;;;13.20;4.82;;;;;;;;;;4308057;32;418157;-83
2023/10/02 10:38:41;;;;;;;9.85;4.80;;;;;;;;;;4308407;32;417704;-83
2023/10/02 10:41:09;;;;;;;10.18;4.65;;;;;;;;;;4339867;32;316549;-82
2023/10/02 10:43:56;;;;;;;9.60;4.72;;;;;;;;;;4321399;32;418092;-84
2023/10/02 10:46:27;;;;;;;9.17;4.07;;;;;;;;;;4327477;32;351777;-82
2023/10/02 10:49:08;;;;;;;7.97;4.43;;;;;;;;;;4340157;32;316638;-83
2023/10/02 10:51:37;;;;;;;8.77;4.35;;;;;;;;;;4323416;32;316586;-82
2023/10/02 10:54:12;;;;;;;8.32;4.20;;;;;;;;;;4338635;32;327527;-83
2023/10/02 10:56:44;;;;;;;9.45;4.45;;;;;;;;;;4327424;32;388029;-84
2023/10/02 10:59:12;;;;;;;7.78;3.97;;;;;;;;;;4328189;32;316741;-84
2023/10/02 11:02:09;;;;;;;10.55;4.15;;;;;;;;;;4335773;32;316560;-82
2023/10/02 11:04:39;;;;;;;7.00;3.78;;;;;;;;;;4319720;32;421157;-84
2023/10/02 11:07:21;;;;;;;10.60;4.68;;;;;;;;;;4339253;32;316547;-85
2023/10/02 11:10:14;;;;;;;8.25;4.28;;;;;;;;;;4323306;32;418077;-85
2023/10/02 11:12:54;;;;;;;7.65;4.22;;;;;;;;;;4324455;32;417292;-83
2023/10/02 11:15:45;;;;;;;9.68;3.97;;;;;;;;;;4324687;32;316789;-83
2023/10/02 11:18:19;;;;;;;11.82;4.75;;;;;;;;;;4327651;32;316591;-83
2023/10/02 11:20:49;;;;;;;9.23;4.20;;;;;;;;;;4336648;32;317750;-83
2023/10/02 11:23:37;;;;;;;6.45;4.32;;;;;;;;;;4325202;32;344353;-83
2023/10/02 11:26:10;;;;;;;13.50;4.90;;;;;;;;;;4338945;32;316571;-83
2023/10/02 11:28:39;;;;;;;8.35;3.90;;;;;;;;;;4319845;32;388283;-83
2023/10/02 11:31:29;;;;;;;8.80;3.80;;;;;;;;;;4338601;32;316745;-83
2023/10/02 11:34:05;;;;;;;11.45;4.60;;;;;;;;;;4306317;32;417179;-83
2023/10/02 11:36:35;;;;;;;6.72;3.83;;;;;;;;;;4323063;32;318216;-83
2023/10/02 11:39:08;;;;;;;5.65;3.40;;;;;;;;;;4336503;32;330098;-83
2023/10/02 11:41:37;;;;;;;6.53;4.05;;;;;;;;;;4323461;32;328664;-83
2023/10/02 11:44:06;;;;;;;9.05;4.20;;;;;;;;;;4338666;32;316672;-83
2023/10/02 11:46:34;;;;;;;7.78;4.03;;;;;;;;;;4329222;32;325056;-83
2023/10/02 11:49:04;;;;;;;8.02;3.65;;;;;;;;;;4336803;32;317026;-83
2023/10/02 11:51:33;;;;;;;6.95;4.35;;;;;;;;;;4324827;32;316750;-83
2023/10/02 11:54:05;;;;;;;6.57;3.28;;;;;;;;;;4337028;32;316669;-83
2023/10/02 11:56:34;;;;;;;12.98;4.57;;;;;;;;;;4327143;32;316788;-82
2023/10/02 11:59:02;;;;;;;6.82;3.78;;;;;;;;;;4338272;32;317893;-83
2023/10/02 12:01:30;;;;;;;8.52;3.97;;;;;;;;;;4325087;32;317256;-83
2023/10/02 12:03:58;;;;;;;13.13;4.65;;;;;;;;;;4336483;32;316862;-82
2023/10/02 12:06:28;;;;;;;11.05;4.45;;;;;;;;;;4327334;32;317818;-83
2023/10/02 12:08:57;;;;;;;5.80;3.83;;;;;;;;;;4337966;32;320527;-83
2023/10/02 12:11:25;;;;;;;16.30;3.62;;;;;;;;;;4325494;32;316540;-84
2023/10/02 12:13:53;;;;;;;6.30;3.70;;;;;;;;;;4335282;32;317853;-83
2023/10/02 12:16:21;;;;;;;5.47;3.53;;;;;;;;;;4326540;32;336064;-83
2023/10/02 12:18:50;;;;;;;16.33;4.75;;;;;;;;;;4339278;32;317273;-82
2023/10/02 12:21:19;;;;;;;10.02;3.92;;;;;;;;;;4329147;32;318024;-83
2023/10/02 12:23:48;;;;;;;8.75;4.72;;;;;;;;;;4334971;32;317972;-83
2023/10/02 12:26:16;;;;;;;8.70;3.87;;;;;;;;;;4328238;32;316677;-84
2023/10/02 12:28:44;;;;;;;8.35;5.05;;;;;;;;;;4342847;32;207177;-84
2023/10/02 12:31:14;;;;;;;8.45;5.10;;;;;;;;;;4328794;32;317121;-86
2023/10/02 12:33:41;;;;;;;9.75;4.18;;;;;;;;;;4336128;32;316774;-82
2023/10/02 12:36:17;;;;;;;10.13;5.10;;;;;;;;;;4335465;32;316956;-82
2023/10/02 12:38:45;;;;;;;6.35;4.22;;;;;;;;;;4323806;32;416870;-83
2023/10/02 12:41:15;;;;;;;10.18;4.93;;;;;;;;;;4327183;32;316895;-82
2023/10/02 12:43:43;;;;;;;10.88;4.32;;;;;;;;;;4332890;32;317989;-83
2023/10/02 12:46:14;;;;;;;8.52;5.00;;;;;;;;;;4337812;32;317783;-83
2023/10/02 12:48:46;;;;;;;8.60;4.55;;;;;;;;;;4325144;32;419038;-83
2023/10/02 12:51:15;;;;;;;12.98;4.65;;;;;;;;;;4324315;33;316726;-83
2023/10/02 12:53:42;;;;;;;14.10;4.80;;;;;;;;;;4334802;32;317802;-84
2023/10/02 12:56:18;;;;;;;10.98;5.10;;;;;;;;;;4335596;32;318171;-84
2023/10/02 12:58:48;;;;;;;15.98;6.25;;;;;;;;;;4323326;32;417038;-83
2023/10/02 13:01:16;;;;;;;11.02;5.47;;;;;;;;;;4330863;32;317912;-83
2023/10/02 13:03:44;;;;;;;8.85;4.72;;;;;;;;;;4334522;32;354107;-83
2023/10/02 13:06:13;;;;;;;9.93;5.75;;;;;;;;;;4327967;32;316737;-84
2023/10/02 13:08:44;;;;;;;7.10;5.05;;;;;;;;;;4338886;32;316886;-83
2023/10/02 13:11:13;;;;;;;15.07;4.93;;;;;;;;;;4326317;32;373172;-84
2023/10/02 13:13:44;;;;;;;11.20;5.22;;;;;;;;;;4337347;32;318021;-82
2023/10/02 13:16:12;;;;;;;13.05;5.30;;;;;;;;;;4329617;32;318536;-84
2023/10/02 13:18:40;;;;;;;9.32;5.57;;;;;;;;;;4341135;32;317669;-84
2023/10/02 13:21:09;;;;;;;10.98;5.53;;;;;;;;;;4338793;32;316819;-83
2023/10/02 13:23:36;;;;;;;12.50;5.78;;;;;;;;;;4323580;32;331452;-83
2023/10/02 13:26:06;;;;;;;11.63;5.25;;;;;;;;;;4341017;32;318242;-82
2023/10/02 13:28:34;;;;;;;11.57;5.18;;;;;;;;;;4330507;32;317822;-83
2023/10/02 13:31:12;;;;;;;8.55;5.07;;;;;;;;;;4340516;32;318134;-83
2023/10/02 13:33:46;;;;;;;16.37;5.35;;;;;;;;;;4312006;32;415959;-83
2023/10/02 13:36:14;;;;;;;11.05;5.18;;;;;;;;;;4329446;32;317871;-84
2023/10/02 13:38:42;;;;;;;7.25;4.45;;;;;;;;;;4338344;32;317786;-84
2023/10/02 13:41:10;;;;;;;11.70;4.85;;;;;;;;;;4340328;32;316705;-84
2023/10/02 13:43:41;;;;;;;8.75;5.40;;;;;;;;;;4323364;32;417292;-84
2023/10/02 13:46:14;;;;;;;8.98;5.43;;;;;;;;;;4340443;32;316924;-87
2023/10/02 13:48:42;;;;;;;15.20;5.12;;;;;;;;;;4318851;32;415734;-89
2023/10/02 13:51:10;;;;;;;8.30;4.80;;;;;;;;;;4339312;32;317715;-84
2023/10/02 13:53:38;;;;;;;11.02;5.57;;;;;;;;;;4307482;32;416209;-84
2023/10/02 13:56:10;;;;;;;8.55;4.87;;;;;;;;;;4335271;32;317776;-83
2023/10/02 13:58:39;;;;;;;7.47;4.70;;;;;;;;;;4315671;32;415913;-83
2023/10/02 14:01:06;;;;;;;10.50;4.82;;;;;;;;;;4338449;32;315870;-83
2023/10/02 14:03:38;;;;;;;12.45;6.40;;;;;;;;;;4328640;32;317710;-86
2023/10/02 14:06:08;;;;;;;9.02;5.57;;;;;;;;;;4339748;32;318092;-84
2023/10/02 14:08:36;;;;;;;8.63;5.25;;;;;;;;;;4315930;32;316811;-84
2023/10/02 14:11:03;;;;;;;9.65;5.45;;;;;;;;;;4337639;32;327102;-85
2023/10/02 14:13:31;;;;;;;9.07;4.68;;;;;;;;;;4325251;32;316769;-85
2023/10/02 14:16:05;;;;;;;9.43;5.47;;;;;;;;;;4340361;32;315845;-85
2023/10/02 14:18:32;;;;;;;8.23;4.82;;;;;;;;;;4328191;32;330364;-85
2023/10/02 14:21:01;;;;;;;13.27;5.10;;;;;;;;;;4338742;32;315454;-85
2023/10/02 14:23:30;;;;;;;15.30;5.45;;;;;;;;;;4326552;32;317657;-84
2023/10/02 14:25:59;;;;;;;17.65;6.45;;;;;;;;;;4339847;32;317790;-86
2023/10/02 14:28:27;;;;;;;19.67;6.80;;;;;;;;;;4329744;32;318001;-85
2023/10/02 14:30:54;;;;;;;11.38;5.93;;;;;;;;;;4338485;32;324582;-85
2023/10/02 14:33:24;;;;;;;10.07;5.28;;;;;;;;;;4327979;32;317833;-86
2023/10/02 14:35:53;;;;;;;11.73;6.22;;;;;;;;;;4337917;32;316782;-85
2023/10/02 14:38:22;;;;;;;11.80;5.87;;;;;;;;;;4327622;32;316891;-85
2023/10/02 14:40:50;;;;;;;8.60;5.53;;;;;;;;;;4337229;32;316513;-85
2023/10/02 14:43:18;;;;;;;10.65;5.90;;;;;;;;;;4327495;32;316597;-85
2023/10/02 14:45:46;;;;;;;9.90;5.35;;;;;;;;;;4337682;32;317625;-86
2023/10/02 14:48:16;;;;;;;12.98;5.70;;;;;;;;;;4328663;32;316922;-86
2023/10/02 14:50:45;;;;;;;16.55;7.07;;;;;;;;;;4337966;32;317689;-85
2023/10/02 14:53:12;;;;;;;10.00;5.80;;;;;;;;;;4323135;32;317850;-89
2023/10/02 14:55:45;;;;;;;16.05;6.05;;;;;;;;;;4335831;32;316676;-81
2023/10/02 14:58:13;;;;;;;13.50;6.50;;;;;;;;;;4326642;32;328886;-86
2023/10/02 15:00:40;;;;;;;15.75;6.18;;;;;;;;;;4338930;32;317826;-81
2023/10/02 15:03:08;;;;;;;10.80;5.57;;;;;;;;;;4339050;32;317777;-81
2023/10/02 15:05:38;;;;;;;15.85;6.30;;;;;;;;;;4327949;32;317870;-82
2023/10/02 15:08:10;;;;;;;13.55;6.05;;;;;;;;;;4337946;32;317656;-83
2023/10/02 15:10:38;;;;;;;12.57;5.10;;;;;;;;;;4325010;32;417313;-83